createdAt,value
2018-03-22T00:02:00.503Z,5.97
2018-03-22T00:04:28.025Z,6.57
2018-03-22T00:06:56.342Z,6.77
2018-03-22T00:09:23.866Z,7.30
2018-03-22T00:11:51.414Z,9.57
2018-03-22T00:14:19.719Z,8.73
2018-03-22T00:16:47.271Z,9.97
2018-03-22T00:19:14.791Z,8.80
2018-03-22T00:21:43.115Z,6.60
2018-03-22T00:24:10.644Z,8.27
2018-03-22T00:26:38.190Z,9.97
2018-03-22T00:29:06.487Z,11.37
2018-03-22T00:31:34.035Z,10.37
2018-03-22T00:34:01.830Z,6.13
2018-03-22T00:36:29.389Z,5.33
2018-03-22T00:38:56.904Z,7.40
2018-03-22T00:41:24.429Z,13.93
2018-03-22T00:43:52.100Z,11.60
2018-03-22T00:46:20.381Z,8.90
2018-03-22T00:48:48.692Z,9.00
2018-03-22T00:51:16.213Z,8.90
2018-03-22T00:53:44.525Z,12.13
2018-03-22T00:56:12.045Z,7.70
2018-03-22T00:58:40.349Z,9.00
2018-03-22T01:01:07.860Z,10.83
2018-03-22T01:03:36.173Z,8.10
2018-03-22T01:06:03.953Z,9.33
2018-03-22T01:08:31.498Z,7.00
2018-03-22T01:10:59.017Z,7.80
2018-03-22T01:13:27.325Z,8.90
2018-03-22T01:15:54.846Z,6.70
2018-03-22T01:18:23.165Z,9.90
2018-03-22T01:20:50.681Z,7.33
2018-03-22T01:23:18.961Z,6.10
2018-03-22T01:25:46.507Z,8.70
2018-03-22T01:28:14.822Z,7.07
2018-03-22T01:30:42.362Z,6.27
2018-03-22T01:33:09.891Z,6.90
2018-03-22T01:35:38.196Z,33.87
2018-03-22T01:38:05.718Z,14.53
2018-03-22T01:40:34.030Z,8.00
2018-03-22T01:43:01.549Z,8.60
2018-03-22T01:45:29.871Z,6.20
2018-03-22T01:47:57.385Z,7.30
2018-03-22T01:50:25.689Z,6.40
2018-03-22T01:53:05.065Z,8.17
2018-03-22T01:55:32.650Z,11.20
2018-03-22T01:58:00.928Z,9.47
2018-03-22T02:00:29.557Z,9.57
2018-03-22T02:02:57.087Z,6.80
2018-03-22T02:05:24.625Z,9.67
2018-03-22T02:07:52.905Z,8.00
2018-03-22T02:10:20.488Z,8.73
2018-03-22T02:12:48.001Z,7.33
2018-03-22T02:15:16.300Z,6.80
2018-03-22T02:17:43.853Z,6.87
2018-03-22T02:20:11.373Z,8.13
2018-03-22T02:22:38.914Z,5.83
2018-03-22T02:25:06.466Z,9.57
2018-03-22T02:27:34.006Z,7.80
2018-03-22T02:30:01.532Z,6.20
2018-03-22T02:32:29.066Z,8.07
2018-03-22T02:34:57.358Z,6.40
2018-03-22T02:37:24.905Z,9.23
2018-03-22T02:39:53.186Z,7.77
2018-03-22T02:42:20.725Z,7.87
2018-03-22T02:44:49.026Z,7.37
2018-03-22T02:47:16.565Z,6.27
2018-03-22T02:49:44.840Z,9.83
2018-03-22T02:52:13.150Z,6.53
2018-03-22T02:54:40.669Z,10.90
2018-03-22T02:57:08.981Z,9.20
2018-03-22T02:59:36.521Z,10.30
2018-03-22T03:02:04.042Z,8.13
2018-03-22T03:04:32.344Z,10.60
2018-03-22T03:06:59.984Z,12.43
2018-03-22T03:09:27.480Z,8.73
2018-03-22T03:11:55.017Z,8.93
2018-03-22T03:14:22.552Z,10.90
2018-03-22T03:16:50.824Z,9.37
2018-03-22T03:19:19.128Z,12.47
2018-03-22T03:21:46.642Z,9.30
2018-03-22T03:24:14.172Z,7.30
2018-03-22T03:26:41.697Z,10.50
2018-03-22T03:29:09.233Z,9.97
2018-03-22T03:31:37.530Z,13.40
2018-03-22T03:34:05.072Z,10.50
2018-03-22T03:36:32.584Z,8.87
2018-03-22T03:39:00.117Z,8.90
2018-03-22T03:41:28.415Z,14.60
2018-03-22T03:43:56.754Z,14.43
2018-03-22T03:46:24.291Z,13.03
2018-03-22T03:48:51.804Z,15.53
2018-03-22T03:51:19.341Z,12.70
2018-03-22T03:53:46.885Z,11.60
2018-03-22T03:56:14.428Z,13.13
2018-03-22T03:58:41.940Z,10.13
2018-03-22T04:01:09.476Z,11.57
2018-03-22T04:03:37.006Z,12.77
2018-03-22T04:06:04.556Z,12.33
2018-03-22T04:08:32.064Z,12.50
2018-03-22T04:10:59.601Z,11.70
2018-03-22T04:13:27.113Z,15.40
2018-03-22T04:15:54.657Z,10.03
2018-03-22T04:18:22.173Z,14.23
2018-03-22T04:20:49.703Z,9.93
2018-03-22T04:23:17.220Z,11.87
2018-03-22T04:25:44.764Z,13.30
2018-03-22T04:28:13.056Z,11.37
2018-03-22T04:30:40.596Z,15.40
2018-03-22T04:33:08.877Z,13.33
2018-03-22T04:35:37.194Z,12.00
2018-03-22T04:38:04.708Z,10.97
2018-03-22T04:40:32.992Z,11.83
2018-03-22T04:43:00.577Z,12.40
2018-03-22T04:45:28.087Z,13.33
2018-03-22T04:47:56.396Z,16.07
2018-03-22T04:50:23.909Z,11.30
2018-03-22T04:52:52.223Z,11.60
2018-03-22T04:55:19.753Z,10.73
2018-03-22T04:57:48.632Z,13.30
2018-03-22T05:00:16.924Z,11.50
2018-03-22T05:02:44.460Z,10.87
2018-03-22T05:05:12.740Z,10.77
2018-03-22T05:07:41.166Z,11.67
2018-03-22T05:10:08.697Z,12.90
2018-03-22T05:12:36.302Z,20.33
2018-03-22T05:15:03.778Z,12.97
2018-03-22T05:17:32.089Z,13.77
2018-03-22T05:19:59.653Z,13.97
2018-03-22T05:22:27.201Z,15.93
2018-03-22T05:24:54.709Z,15.23
2018-03-22T05:27:22.541Z,14.73
2018-03-22T05:29:50.085Z,12.47
2018-03-22T05:32:17.628Z,13.27
2018-03-22T05:34:45.174Z,16.77
2018-03-22T05:37:12.681Z,18.70
2018-03-22T05:39:40.233Z,20.17
2018-03-22T05:42:07.758Z,15.87
2018-03-22T05:44:35.297Z,22.97
2018-03-22T05:47:02.917Z,11.47
2018-03-22T05:49:30.452Z,18.70
2018-03-22T05:51:57.965Z,14.07
2018-03-22T05:54:26.348Z,13.93
2018-03-22T05:56:53.881Z,14.53
2018-03-22T05:59:22.188Z,14.00
2018-03-22T06:01:49.722Z,13.20
2018-03-22T06:04:17.273Z,13.40
2018-03-22T06:06:45.549Z,15.40
2018-03-22T06:09:13.861Z,15.40
2018-03-22T06:11:41.372Z,15.67
2018-03-22T06:14:09.676Z,15.70
2018-03-22T06:16:37.185Z,16.17
2018-03-22T06:19:04.724Z,17.00
2018-03-22T06:21:33.001Z,13.13
2018-03-22T06:24:00.553Z,12.37
2018-03-22T06:26:28.073Z,15.07
2018-03-22T06:28:55.649Z,14.33
2018-03-22T06:31:23.163Z,11.80
2018-03-22T06:33:51.443Z,12.80
2018-03-22T06:36:18.995Z,11.73
2018-03-22T06:38:46.519Z,18.80
2018-03-22T06:41:14.055Z,15.77
2018-03-22T06:43:42.335Z,10.37
2018-03-22T06:46:09.869Z,18.67
2018-03-22T06:48:39.229Z,16.00
2018-03-22T06:51:07.537Z,12.53
2018-03-22T06:53:35.061Z,13.40
2018-03-22T06:56:03.365Z,10.90
2018-03-22T06:58:30.897Z,9.50
2018-03-22T07:00:59.212Z,8.80
2018-03-22T07:03:26.730Z,10.10
2018-03-22T07:05:54.273Z,14.63
2018-03-22T07:08:21.810Z,11.87
2018-03-22T07:10:49.354Z,13.10
2018-03-22T07:13:16.861Z,11.23
2018-03-22T07:15:44.406Z,9.43
2018-03-22T07:18:12.693Z,10.87
2018-03-22T07:20:40.246Z,9.97
2018-03-22T07:23:07.793Z,9.70
2018-03-22T07:25:36.069Z,9.77
2018-03-22T07:28:03.624Z,11.27
2018-03-22T07:30:31.908Z,16.03
2018-03-22T07:32:59.441Z,7.00
2018-03-22T07:35:27.719Z,6.97
2018-03-22T07:37:56.025Z,7.80
2018-03-22T07:40:23.533Z,9.27
2018-03-22T07:42:56.748Z,7.20
2018-03-22T07:45:24.329Z,7.30
2018-03-22T07:47:52.584Z,7.00
2018-03-22T07:50:20.111Z,6.60
2018-03-22T07:52:47.649Z,6.53
2018-03-22T07:55:15.961Z,12.80
2018-03-22T07:57:44.262Z,8.33
2018-03-22T08:00:12.048Z,8.80
2018-03-22T08:02:39.593Z,8.47
2018-03-22T08:05:07.121Z,6.63
2018-03-22T08:07:34.629Z,8.23
2018-03-22T08:10:02.165Z,7.83
2018-03-22T08:12:29.737Z,13.90
2018-03-22T08:14:57.259Z,8.33
2018-03-22T08:17:24.765Z,6.47
2018-03-22T08:19:52.296Z,9.20
2018-03-22T08:22:19.807Z,5.40
2018-03-22T08:24:47.342Z,10.03
2018-03-22T08:27:15.633Z,8.97
2018-03-22T08:29:43.185Z,7.00
2018-03-22T08:32:11.710Z,12.60
2018-03-22T08:34:39.249Z,7.10
2018-03-22T08:37:06.761Z,10.10
2018-03-22T08:39:34.310Z,10.03
2018-03-22T08:42:01.826Z,11.03
2018-03-22T08:44:29.358Z,7.30
2018-03-22T08:46:56.864Z,10.67
2018-03-22T08:49:24.373Z,8.37
2018-03-22T08:51:51.909Z,9.20
2018-03-22T08:54:20.180Z,8.50
2018-03-22T08:56:48.481Z,9.63
2018-03-22T08:59:15.997Z,13.97
2018-03-22T09:01:43.538Z,15.90
2018-03-22T09:04:11.065Z,15.50
2018-03-22T09:06:38.600Z,15.20
2018-03-22T09:09:06.118Z,16.20
2018-03-22T09:11:33.652Z,14.27
2018-03-22T09:14:01.167Z,18.33
2018-03-22T09:16:28.724Z,14.87
2018-03-22T09:18:56.237Z,14.63
2018-03-22T09:21:23.772Z,18.87
2018-03-22T09:23:51.297Z,15.03
2018-03-22T09:26:18.834Z,16.07
2018-03-22T09:28:46.349Z,17.10
2018-03-22T09:31:13.888Z,16.63
2018-03-22T09:33:41.405Z,15.10
2018-03-22T09:36:08.945Z,16.60
2018-03-22T09:38:36.516Z,20.70
2018-03-22T09:41:04.796Z,20.80
2018-03-22T09:43:32.336Z,17.47
2018-03-22T09:46:00.612Z,22.30
2018-03-22T09:48:28.201Z,19.53
2018-03-22T09:50:55.746Z,20.20
2018-03-22T09:53:23.294Z,33.47
2018-03-22T09:55:50.808Z,23.03
2018-03-22T09:58:18.346Z,20.10
2018-03-22T10:00:46.623Z,19.80
2018-03-22T10:03:14.482Z,26.43
2018-03-22T10:05:41.992Z,20.17
2018-03-22T10:08:10.845Z,19.97
2018-03-22T10:10:38.373Z,23.40
2018-03-22T10:13:05.913Z,26.37
2018-03-22T10:15:33.734Z,21.33
2018-03-22T10:18:02.044Z,26.30
2018-03-22T10:20:29.580Z,21.40
2018-03-22T10:22:57.879Z,22.70
2018-03-22T10:25:25.413Z,25.07
2018-03-22T10:27:53.716Z,22.93
2018-03-22T10:30:21.253Z,27.27
2018-03-22T10:32:48.804Z,25.80
2018-03-22T10:35:16.329Z,25.37
2018-03-22T10:37:43.845Z,24.93
2018-03-22T10:40:11.380Z,26.93
2018-03-22T10:42:38.895Z,26.33
2018-03-22T10:45:06.465Z,28.40
2018-03-22T10:47:34.745Z,26.87
2018-03-22T10:50:03.050Z,23.20
2018-03-22T10:52:30.563Z,30.70
2018-03-22T10:54:58.103Z,25.60
2018-03-22T10:57:25.621Z,31.00
2018-03-22T10:59:53.156Z,25.33
2018-03-22T11:02:27.242Z,33.03
2018-03-22T11:04:54.786Z,30.17
2018-03-22T11:07:22.305Z,28.07
2018-03-22T11:09:49.849Z,26.40
2018-03-22T11:12:17.365Z,24.13
2018-03-22T11:14:44.904Z,25.00
2018-03-22T11:17:12.425Z,25.30
2018-03-22T11:19:40.090Z,26.13
2018-03-22T11:22:07.605Z,24.80
2018-03-22T11:24:35.889Z,26.00
2018-03-22T11:27:04.193Z,26.97
2018-03-22T11:29:31.717Z,24.50
2018-03-22T11:32:00.021Z,25.93
2018-03-22T11:34:27.593Z,29.60
2018-03-22T11:36:55.092Z,27.67
2018-03-22T11:39:23.373Z,25.97
2018-03-22T11:41:51.684Z,31.20
2018-03-22T11:44:19.201Z,27.90
2018-03-22T11:46:47.509Z,26.30
2018-03-22T11:49:15.041Z,33.47
2018-03-22T11:51:42.581Z,27.80
2018-03-22T11:54:10.856Z,31.57
2018-03-22T11:56:39.165Z,28.10
2018-03-22T11:59:06.751Z,33.37
2018-03-22T12:01:34.244Z,25.30
2018-03-22T12:04:02.527Z,36.73
2018-03-22T12:06:30.093Z,30.40
2018-03-22T12:08:57.618Z,27.23
2018-03-22T12:11:25.157Z,27.13
2018-03-22T12:13:52.676Z,28.97
2018-03-22T12:16:20.260Z,31.07
2018-03-22T12:18:47.749Z,31.80
2018-03-22T12:21:16.067Z,37.10
2018-03-22T12:23:43.597Z,32.07
2018-03-22T12:26:11.137Z,32.20
2018-03-22T12:28:39.417Z,30.80
2018-03-22T12:31:08.049Z,37.00
2018-03-22T12:33:35.564Z,35.37
2018-03-22T12:36:03.079Z,37.10
2018-03-22T12:38:30.637Z,36.40
2018-03-22T12:40:58.154Z,36.33
2018-03-22T12:43:25.726Z,39.07
2018-03-22T12:45:53.234Z,36.50
2018-03-22T12:48:21.532Z,41.60
2018-03-22T12:50:49.048Z,35.40
2018-03-22T12:53:16.586Z,29.13
2018-03-22T12:55:44.116Z,41.10
2018-03-22T12:58:11.661Z,34.70
2018-03-22T13:00:39.188Z,37.73
2018-03-22T13:03:07.505Z,33.17
2018-03-22T13:05:35.379Z,32.67
2018-03-22T13:08:03.680Z,34.57
2018-03-22T13:10:31.194Z,33.93
2018-03-22T13:12:58.748Z,32.83
2018-03-22T13:15:26.265Z,28.00
2018-03-22T13:17:54.560Z,29.70
2018-03-22T13:20:22.093Z,32.43
2018-03-22T13:22:50.405Z,30.23
2018-03-22T13:25:17.917Z,28.27
2018-03-22T13:27:45.436Z,30.50
2018-03-22T13:30:13.083Z,37.00
2018-03-22T13:32:40.605Z,33.40
2018-03-22T13:35:08.209Z,33.20
2018-03-22T13:37:35.731Z,34.03
2018-03-22T13:40:03.273Z,32.53
2018-03-22T13:42:31.553Z,34.60
2018-03-22T13:44:59.849Z,31.80
2018-03-22T13:47:27.368Z,35.83
2018-03-22T13:49:55.675Z,32.40
2018-03-22T13:52:23.221Z,28.30
2018-03-22T13:54:50.761Z,31.10
2018-03-22T13:57:19.056Z,30.87
2018-03-22T13:59:46.634Z,28.80
2018-03-22T14:02:14.157Z,27.03
2018-03-22T14:04:41.697Z,35.80
2018-03-22T14:07:09.986Z,32.63
2018-03-22T14:09:37.541Z,32.77
2018-03-22T14:12:05.850Z,30.03
2018-03-22T14:14:33.357Z,34.73
2018-03-22T14:17:01.665Z,31.93
2018-03-22T14:19:29.184Z,32.77
2018-03-22T14:21:57.484Z,33.33
2018-03-22T14:24:25.011Z,29.40
2018-03-22T14:26:53.317Z,36.13
2018-03-22T14:29:20.838Z,30.33
2018-03-22T14:31:48.381Z,29.97
2018-03-22T14:34:15.896Z,34.83
2018-03-22T14:36:43.435Z,30.80
2018-03-22T14:39:10.987Z,31.20
2018-03-22T14:41:39.440Z,32.37
2018-03-22T14:44:06.993Z,35.00
2018-03-22T14:46:34.563Z,35.37
2018-03-22T14:49:02.857Z,32.10
2018-03-22T14:51:30.399Z,35.80
2018-03-22T14:53:58.685Z,29.23
2018-03-22T14:56:26.260Z,32.83
2018-03-22T14:58:53.773Z,35.63
2018-03-22T15:01:22.068Z,34.33
2018-03-22T15:03:50.693Z,39.93
2018-03-22T15:06:18.224Z,32.73
2018-03-22T15:08:45.772Z,29.60
2018-03-22T15:11:13.295Z,35.80
2018-03-22T15:13:40.828Z,38.93
2018-03-22T15:16:08.344Z,74.93
2018-03-22T15:18:36.132Z,29.87
2018-03-22T15:21:03.646Z,29.37
2018-03-22T15:23:31.189Z,32.00
2018-03-22T15:25:58.725Z,166.33
2018-03-22T15:28:26.284Z,36.40
2018-03-22T15:30:53.804Z,33.63
2018-03-22T15:33:24.308Z,73.17
2018-03-22T15:35:53.769Z,242.93
2018-03-22T15:38:23.948Z,74.77
2018-03-22T15:46:40.875Z,80.10
2018-03-22T15:49:12.164Z,60.80
2018-03-22T15:51:49.335Z,70.07
2018-03-22T15:54:18.115Z,105.93
2018-03-22T15:56:45.633Z,41.10
2018-03-22T15:59:13.200Z,144.10
2018-03-22T16:01:40.866Z,202.27
2018-03-22T16:04:08.416Z,38.63
2018-03-22T16:06:35.932Z,35.83
2018-03-22T16:09:03.494Z,31.90
2018-03-22T16:11:31.773Z,79.03
2018-03-22T16:14:00.094Z,51.27
2018-03-22T16:16:32.368Z,58.57
2018-03-22T16:19:02.794Z,58.13
2018-03-22T16:21:30.764Z,57.10
2018-03-22T16:23:59.033Z,26.57
2018-03-22T16:26:26.575Z,26.87
2018-03-22T16:28:54.137Z,23.57
2018-03-22T16:31:21.688Z,30.90
2018-03-22T16:33:50.209Z,26.07
2018-03-22T16:36:17.724Z,25.40
2018-03-22T16:38:45.237Z,23.73
2018-03-22T16:41:13.577Z,25.20
2018-03-22T16:43:41.092Z,27.93
2018-03-22T16:46:08.653Z,25.97
2018-03-22T16:48:36.197Z,25.00
2018-03-22T16:51:03.745Z,25.07
2018-03-22T16:53:32.029Z,21.90
2018-03-22T16:55:59.549Z,23.13
2018-03-22T16:58:27.896Z,28.37
2018-03-22T17:00:55.417Z,26.57
2018-03-22T17:03:22.961Z,24.43
2018-03-22T17:05:51.264Z,23.47
2018-03-22T17:08:18.799Z,25.03
2018-03-22T17:10:46.317Z,26.93
2018-03-22T17:13:14.657Z,23.20
2018-03-22T17:15:42.178Z,24.90
2018-03-22T17:18:10.484Z,22.40
2018-03-22T17:20:38.016Z,20.87
2018-03-22T17:23:05.561Z,25.40
2018-03-22T17:25:33.852Z,24.13
2018-03-22T17:28:02.564Z,21.87
2018-03-22T17:30:30.289Z,23.53
2018-03-22T17:33:01.121Z,22.87
2018-03-22T17:35:29.400Z,23.30
2018-03-22T17:37:56.951Z,21.63
2018-03-22T17:40:24.469Z,21.80
2018-03-22T17:42:52.037Z,23.63
2018-03-22T17:45:19.554Z,27.20
2018-03-22T17:47:47.065Z,23.53
2018-03-22T17:50:15.385Z,25.00
2018-03-22T17:52:42.938Z,21.43
2018-03-22T17:55:10.478Z,22.03
2018-03-22T17:57:38.062Z,27.60
2018-03-22T18:00:06.315Z,26.30
2018-03-22T18:02:33.831Z,27.40
2018-03-22T18:05:02.137Z,29.23
2018-03-22T18:07:29.652Z,25.93
2018-03-22T18:09:57.188Z,25.30
2018-03-22T18:12:25.043Z,23.83
2018-03-22T18:14:52.581Z,25.23
2018-03-22T18:17:20.096Z,25.70
2018-03-22T18:19:48.382Z,27.47
2018-03-22T18:22:17.108Z,26.40
2018-03-22T18:24:44.640Z,28.67
2018-03-22T18:27:12.182Z,27.00
2018-03-22T18:29:40.484Z,26.67
2018-03-22T18:32:08.369Z,25.50
2018-03-22T18:34:35.893Z,33.37
2018-03-22T18:37:03.453Z,25.73
2018-03-22T18:39:30.980Z,25.77
2018-03-22T18:41:59.281Z,29.00
2018-03-22T18:44:26.800Z,27.90
2018-03-22T18:46:55.110Z,27.73
2018-03-22T18:49:22.631Z,26.33
2018-03-22T18:51:50.938Z,31.57
2018-03-22T18:54:18.452Z,27.60
2018-03-22T18:56:45.990Z,27.50
2018-03-22T18:59:13.518Z,26.77
2018-03-22T19:01:41.077Z,26.77
2018-03-22T19:04:08.598Z,28.00
2018-03-22T19:06:37.121Z,26.60
2018-03-22T19:09:05.433Z,28.50
2018-03-22T19:11:32.973Z,29.60
2018-03-22T19:14:00.512Z,27.60
2018-03-22T19:16:28.033Z,29.87
2018-03-22T19:18:55.569Z,30.30
2018-03-22T19:21:23.871Z,29.50
2018-03-22T19:23:51.418Z,28.40
2018-03-22T19:26:18.944Z,27.83
2018-03-22T19:28:46.477Z,29.90
2018-03-22T19:31:13.988Z,29.83
2018-03-22T19:33:41.528Z,28.50
2018-03-22T19:36:09.853Z,28.30
2018-03-22T19:38:37.358Z,27.20
2018-03-22T19:41:05.652Z,29.47
2018-03-22T19:43:33.188Z,27.63
2018-03-22T19:46:01.465Z,25.17
2018-03-22T19:48:29.762Z,28.03
2018-03-22T19:50:57.273Z,30.93
2018-03-22T19:53:24.808Z,34.70
2018-03-22T19:55:52.325Z,29.10
2018-03-22T19:58:19.870Z,31.67
2018-03-22T20:00:47.385Z,27.30
2018-03-22T20:03:14.917Z,26.33
2018-03-22T20:05:42.430Z,28.80
2018-03-22T20:08:10.735Z,37.83
2018-03-22T20:10:38.249Z,27.67
2018-03-22T20:13:06.555Z,30.97
2018-03-22T20:15:34.101Z,30.37
2018-03-22T20:18:01.640Z,28.60
2018-03-22T20:20:29.926Z,31.90
2018-03-22T20:22:57.477Z,28.07
2018-03-22T20:25:25.748Z,30.73
2018-03-22T20:27:54.030Z,30.80
2018-03-22T20:30:21.573Z,26.10
2018-03-22T20:32:49.862Z,26.57
2018-03-22T20:35:17.409Z,27.60
2018-03-22T20:37:45.685Z,31.53
2018-03-22T20:40:14.313Z,29.40
2018-03-22T20:42:41.836Z,37.90
2018-03-22T20:45:09.374Z,32.17
2018-03-22T20:47:37.732Z,29.47
2018-03-22T20:50:05.402Z,31.00
2018-03-22T20:52:33.701Z,31.03
2018-03-22T20:55:01.294Z,30.03
2018-03-22T20:57:28.818Z,31.13
2018-03-22T20:59:56.355Z,34.67
2018-03-22T21:02:24.633Z,31.53
2018-03-22T21:04:52.174Z,36.93
2018-03-22T21:07:20.466Z,34.47
2018-03-22T21:09:48.038Z,31.30
2018-03-22T21:12:15.574Z,29.63
2018-03-22T21:14:43.873Z,29.33
2018-03-22T21:17:11.384Z,30.97
2018-03-22T21:19:38.916Z,32.47
2018-03-22T21:22:06.433Z,31.33
2018-03-22T21:24:33.974Z,33.40
2018-03-22T21:27:02.267Z,33.70
2018-03-22T21:29:29.821Z,32.13
2018-03-22T21:31:57.345Z,35.70
2018-03-22T21:34:25.647Z,30.60
2018-03-22T21:36:53.200Z,32.10
2018-03-22T21:39:20.742Z,35.47
2018-03-22T21:42:00.846Z,33.77
2018-03-22T21:44:28.387Z,31.80
2018-03-22T21:46:55.905Z,26.70
2018-03-22T21:49:24.211Z,32.60
2018-03-22T21:52:03.478Z,38.10
2018-03-22T21:54:31.029Z,34.90
2018-03-22T21:56:58.545Z,39.77
2018-03-22T21:59:26.125Z,31.87
2018-03-22T22:01:54.084Z,33.90
2018-03-22T22:04:21.626Z,34.33
2018-03-22T22:06:49.157Z,33.13
2018-03-22T22:09:17.486Z,29.87
2018-03-22T22:11:45.001Z,35.60
2018-03-22T22:14:12.526Z,31.03
2018-03-22T22:16:40.074Z,35.10
2018-03-22T22:19:07.610Z,37.27
2018-03-22T22:21:35.152Z,32.90
2018-03-22T22:24:02.673Z,35.47
2018-03-22T22:26:31.001Z,34.77
2018-03-22T22:28:58.521Z,31.33
2018-03-22T22:31:26.066Z,32.63
2018-03-22T22:36:28.265Z,37.03
2018-03-22T22:38:55.782Z,36.83
2018-03-22T22:41:23.320Z,36.47
2018-03-22T22:43:50.845Z,32.80
2018-03-22T22:46:18.382Z,35.43
2018-03-22T22:48:45.906Z,35.67
2018-03-22T22:51:14.223Z,38.30
2018-03-22T22:53:41.746Z,38.77
2018-03-22T22:56:10.065Z,36.50
2018-03-22T22:58:37.581Z,37.67
2018-03-22T23:01:05.891Z,38.37
2018-03-22T23:03:34.197Z,34.27
2018-03-22T23:06:01.741Z,45.60
2018-03-22T23:08:29.253Z,35.80
2018-03-22T23:10:56.793Z,37.10
2018-03-22T23:13:25.077Z,35.43
2018-03-22T23:15:53.420Z,37.83
2018-03-22T23:18:20.912Z,34.43
2018-03-22T23:20:49.220Z,34.83
2018-03-22T23:23:16.736Z,39.00
2018-03-22T23:25:45.098Z,37.40
2018-03-22T23:28:12.581Z,35.77
2018-03-22T23:30:40.122Z,38.63
2018-03-22T23:33:08.401Z,32.60
2018-03-22T23:35:36.705Z,42.20
2018-03-22T23:38:04.216Z,36.93
2018-03-22T23:40:32.636Z,31.10
2018-03-22T23:43:00.151Z,35.07
2018-03-22T23:45:28.457Z,41.63
2018-03-22T23:47:55.985Z,33.80
2018-03-22T23:50:24.297Z,37.90
2018-03-22T23:52:51.817Z,36.10
2018-03-22T23:55:20.153Z,40.50
2018-03-22T23:57:47.681Z,36.67
